STS Fryderyk Chopin — SPS2298 — position and weather

sailwx.info

Track history (hours):
 
Tides and Currents Weather Stations Pressure Air Temp Water Temp Dewpoint Dewpoint Depression Visibility Wind Speed Wind Dir Waves Ship Positions

STS Fryderyk Chopin (Poland)

Ship's website: http://www.fryderykchopin.pl/

Last reported at 2017-Jun-26 15:15 UTC. Time now 2017-Jun-27 10:25 UTC.
Position N 55°42' E 006°35'.

Length 44 m; draft 4.2 m.

Type: Sailing vessel. MMSI: 261000290.

Date/timePositionNaut miles runAvg speedWind from/ knotsBaromVisibWave heightAir tempDewpointWater temp
2017-Jun-26 15:15N 55°42' E 006°35'2 7.8
2017-Jun-26 14:59N 55°41' E 006°33'3 7.1
2017-Jun-26 14:30N 55°38' E 006°30'8 7.7
2017-Jun-26 13:29N 55°30' E 006°26'121 8.8
2017-Jun-25 23:46N 53°42' E 004°50'2 7.7
2017-Jun-25 23:30N 53°40' E 004°50'4 7.3
2017-Jun-25 23:00N 53°37' E 004°48'3 6.0
2017-Jun-25 22:30N 53°34' E 004°47'3 5.1
2017-Jun-25 22:00N 53°31' E 004°46'2 4.2
2017-Jun-25 21:30N 53°29' E 004°45'2 3.7
2017-Jun-25 21:01N 53°28' E 004°44'2 3.8
2017-Jun-25 20:30N 53°26' E 004°43'2 4.4
2017-Jun-25 20:00N 53°24' E 004°41'2 4.5
2017-Jun-25 19:30N 53°22' E 004°40'2 4.8
2017-Jun-25 19:00N 53°20' E 004°38'3 6.6
2017-Jun-25 18:31N 53°16' E 004°37'3 6.3
2017-Jun-25 18:00N 53°13' E 004°35'3 6.1
2017-Jun-25 17:30N 53°11' E 004°33'3 6.5
2017-Jun-25 17:00N 53°08' E 004°30'4 6.7
2017-Jun-25 16:27N 53°04' E 004°28'3 6.3
2017-Jun-25 16:00N 53°02' E 004°27'3 5.5
2017-Jun-25 15:30N 52°59' E 004°27'3 5.5
2017-Jun-25 15:00N 52°56' E 004°29'4 4.2
2017-Jun-25 14:00N 52°52' E 004°30'2 4.2
2017-Jun-25 13:30N 52°50' E 004°30'2 5.0
2017-Jun-25 13:00N 52°47' E 004°30'3 5.1
2017-Jun-25 12:31N 52°45' E 004°29'3 5.2
2017-Jun-25 12:00N 52°42' E 004°29'3 5.6
2017-Jun-25 11:30N 52°39' E 004°29'3 5.8
2017-Jun-25 11:00N 52°37' E 004°29'2 4.8
2017-Jun-25 10:30N 52°34' E 004°29'3 5.0
2017-Jun-25 10:00N 52°32' E 004°27'2 4.9
2017-Jun-25 09:30N 52°29' E 004°28'2 4.5
2017-Jun-25 09:01N 52°28' E 004°31'3 5.3
2017-Jun-25 08:31N 52°28' E 004°35'1 1.5
2017-Jun-25 08:00N 52°28' E 004°37'2 4.4
2017-Jun-25 07:30N 52°28' E 004°40'0 0.2
2017-Jun-25 07:01N 52°28' E 004°40'0 0.0
2017-Jun-25 06:30N 52°28' E 004°40'0 0.0
2017-Jun-25 06:01N 52°28' E 004°40'0 0.0
2017-Jun-25 05:30N 52°28' E 004°40'0 0.0
2017-Jun-25 05:01N 52°28' E 004°40'0 0.0
2017-Jun-25 04:30N 52°28' E 004°40'0 0.0
2017-Jun-25 04:00N 52°28' E 004°40'0 0.0
2017-Jun-25 03:30N 52°28' E 004°40'0 0.0
2017-Jun-25 03:01N 52°28' E 004°40'0 0.0
2017-Jun-25 02:31N 52°28' E 004°40'0 0.0
2017-Jun-25 02:01N 52°28' E 004°40'0 0.0
2017-Jun-25 01:31N 52°28' E 004°40'0 0.0
2017-Jun-25 01:01N 52°28' E 004°40'0 0.0
2017-Jun-25 00:30N 52°28' E 004°40'0 0.0
2017-Jun-25 00:00N 52°28' E 004°40'0 0.0
2017-Jun-24 23:31N 52°28' E 004°40'0 0.0
2017-Jun-24 23:00N 52°28' E 004°40'0 0.0
2017-Jun-24 22:30N 52°28' E 004°40'0 0.0
2017-Jun-24 22:01N 52°28' E 004°40'0 0.0
2017-Jun-24 21:31N 52°28' E 004°40'0 0.0
2017-Jun-24 21:00N 52°28' E 004°40'0 0.0
2017-Jun-24 20:30N 52°28' E 004°40'0 0.0
2017-Jun-24 20:00N 52°28' E 004°40'0 0.0
2017-Jun-24 19:30N 52°28' E 004°40'0 0.0
2017-Jun-24 19:00N 52°28' E 004°40'0 0.0
2017-Jun-24 18:31N 52°28' E 004°40'0 0.0
2017-Jun-24 18:00N 52°28' E 004°40'0 0.0
2017-Jun-24 17:30N 52°28' E 004°40'0 0.0
2017-Jun-24 17:00N 52°28' E 004°40'0 0.0
2017-Jun-24 16:31N 52°28' E 004°40'0 0.0
2017-Jun-24 16:00N 52°28' E 004°40'0 0.0
2017-Jun-24 15:30N 52°28' E 004°40'0 0.0
2017-Jun-24 15:00N 52°28' E 004°40'0 0.0
2017-Jun-24 14:01N 52°28' E 004°40'0 0.0
2017-Jun-24 13:31N 52°28' E 004°40'0 0.0
2017-Jun-24 13:00N 52°28' E 004°40'0 0.0
2017-Jun-24 12:31N 52°28' E 004°40'0 0.0
2017-Jun-24 12:00N 52°28' E 004°40'0 0.0
2017-Jun-24 11:31N 52°28' E 004°40'0 0.0
2017-Jun-24 11:01N 52°28' E 004°40'0 0.0
2017-Jun-24 10:31N 52°28' E 004°40'0 0.0
2017-Jun-24 10:00N 52°28' E 004°40'0 0.0
2017-Jun-24 09:31N 52°28' E 004°40'0 0.0
2017-Jun-24 09:00N 52°28' E 004°40'0 0.0
2017-Jun-24 08:30N 52°28' E 004°40'0 0.0
2017-Jun-24 08:01N 52°28' E 004°40'0 0.0
2017-Jun-24 07:30N 52°28' E 004°40'0 0.0
2017-Jun-24 07:00N 52°28' E 004°40'0 0.0
2017-Jun-24 06:31N 52°28' E 004°40'0 0.0
2017-Jun-24 06:00N 52°28' E 004°40'0 0.0
2017-Jun-24 05:31N 52°28' E 004°40'0 0.0
2017-Jun-24 05:01N 52°28' E 004°40'0 0.0
2017-Jun-24 04:31N 52°28' E 004°40'0 0.0
2017-Jun-24 04:01N 52°28' E 004°40'0 0.0
2017-Jun-24 03:30N 52°28' E 004°40'0 0.0
2017-Jun-24 03:00N 52°28' E 004°40'0 0.0
2017-Jun-24 02:31N 52°28' E 004°40'0 0.0
2017-Jun-24 02:00N 52°28' E 004°40'0 0.0
2017-Jun-24 01:30N 52°28' E 004°40'0 0.0
2017-Jun-24 01:01N 52°28' E 004°40'0 0.0
2017-Jun-24 00:30N 52°28' E 004°40'0 0.0
2017-Jun-24 00:00N 52°28' E 004°40'0 0.0
2017-Jun-23 23:31N 52°28' E 004°40'0 0.0
2017-Jun-23 23:00N 52°28' E 004°40'0 0.0
2017-Jun-23 22:31N 52°28' E 004°40'0 0.0
2017-Jun-23 22:00N 52°28' E 004°40'0 0.0
2017-Jun-23 21:31N 52°28' E 004°40'0 0.0
2017-Jun-23 21:00N 52°28' E 004°40'0 0.0
2017-Jun-23 20:31N 52°28' E 004°40'0 0.0
2017-Jun-23 20:00N 52°28' E 004°40'0 0.0
2017-Jun-23 19:31N 52°28' E 004°40'0 0.0
2017-Jun-23 19:01N 52°28' E 004°40'0 0.0
2017-Jun-23 18:30N 52°28' E 004°40'0 0.0
2017-Jun-23 18:00N 52°28' E 004°40'0 0.0
2017-Jun-23 17:30N 52°28' E 004°40'0 0.5
2017-Jun-23 17:00N 52°28' E 004°40'2 4.1
2017-Jun-23 16:30N 52°28' E 004°37'1 1.9
2017-Jun-23 16:00N 52°28' E 004°35'1 2.2
2017-Jun-23 15:30N 52°28' E 004°33'3 5.1
2017-Jun-23 15:00N 52°28' E 004°29'6 6.4
2017-Jun-23 14:00N 52°28' E 004°19'4 8.1
2017-Jun-23 13:30N 52°27' E 004°12'5 9.4
2017-Jun-23 13:00N 52°26' E 004°05'5 8.8
2017-Jun-23 12:26N 52°24' E 003°57'4 8.4
2017-Jun-23 11:59N 52°23' E 003°51'4 7.8
2017-Jun-23 11:30N 52°22' E 003°45'4 7.1
2017-Jun-23 10:58N 52°20' E 003°39'3 6.4
2017-Jun-23 10:30N 52°19' E 003°35'3 5.8
2017-Jun-23 10:00N 52°17' E 003°31'2 4.6
2017-Jun-23 09:28N 52°16' E 003°28'2 3.4
2017-Jun-23 09:00N 52°15' E 003°26'1 2.8
2017-Jun-23 08:30N 52°15' E 003°24'1 2.9
2017-Jun-23 08:00N 52°14' E 003°21'1 2.4
2017-Jun-23 07:26N 52°13' E 003°20'1 1.8
2017-Jun-23 06:52N 52°13' E 003°18'1 1.8
2017-Jun-23 06:30N 52°12' E 003°17'1 1.5
2017-Jun-23 05:59N 52°12' E 003°16'40 4.4
2017-Jun-22 20:57N 51°43' E 002°31'1 2.0
2017-Jun-22 20:30N 51°43' E 002°30'1 1.7
2017-Jun-22 19:58N 51°42' E 002°29'1 1.2
2017-Jun-22 19:25N 51°41' E 002°29'0 0.7
2017-Jun-22 18:55N 51°41' E 002°28'1 1.7
2017-Jun-22 18:25N 51°40' E 002°27'1 2.1
2017-Jun-22 18:00N 51°40' E 002°26'2 3.1
2017-Jun-22 17:28N 51°38' E 002°25'2 3.7
2017-Jun-22 16:59N 51°37' E 002°23'2 3.4
2017-Jun-22 16:30N 51°36' E 002°21'3 5.2
2017-Jun-22 16:00N 51°34' E 002°19'3 6.5
2017-Jun-22 15:30N 51°31' E 002°15'4 7.0
2017-Jun-22 15:00N 51°29' E 002°12'8 8.1
2017-Jun-22 14:00N 51°22' E 002°04'5 9.2
2017-Jun-22 13:30N 51°18' E 001°60'5 9.9
2017-Jun-22 13:00N 51°15' E 001°54'5 9.8
2017-Jun-22 12:30N 51°13' E 001°47'5 9.7
2017-Jun-22 12:01N 51°09' E 001°43'5 9.4
2017-Jun-22 11:30N 51°04' E 001°39'5 9.3
2017-Jun-22 11:00N 51°00' E 001°36'7 9.4
2017-Jun-22 10:13N 50°54' E 001°30'310.6
2017-Jun-22 09:54N 50°50' E 001°29'5 7.8
2017-Jun-22 09:16N 50°46' E 001°30'1 3.7
2017-Jun-22 08:58N 50°45' E 001°31'1 3.1
2017-Jun-22 08:30N 50°45' E 001°34'2 2.1
2017-Jun-22 07:31N 50°43' E 001°36'0 0.0
2017-Jun-22 06:10N 50°43' E 001°36'0 0.0
2017-Jun-22 05:49N 50°43' E 001°36'0 0.0
2017-Jun-22 05:19N 50°43' E 001°36'0 0.0
2017-Jun-22 04:37N 50°43' E 001°36'0 0.0
2017-Jun-22 04:07N 50°43' E 001°36'0 0.0
2017-Jun-22 02:01N 50°43' E 001°36'0 0.0
2017-Jun-22 01:43N 50°43' E 001°36'0 0.0
2017-Jun-22 01:16N 50°43' E 001°36'0 0.0
2017-Jun-22 00:55N 50°43' E 001°36'0 0.0
2017-Jun-22 00:25N 50°43' E 001°36'0 0.0
2017-Jun-21 23:49N 50°43' E 001°36'0 0.0
2017-Jun-21 23:28N 50°43' E 001°36'0 0.0
2017-Jun-21 22:58N 50°43' E 001°36'0 0.0
2017-Jun-21 22:25N 50°43' E 001°36'0 0.0
2017-Jun-21 21:55N 50°43' E 001°36'0 0.0
2017-Jun-21 21:25N 50°43' E 001°36'0 0.0
2017-Jun-21 16:40N 50°43' E 001°36'0 0.0
2017-Jun-21 09:30N 50°43' E 001°36'0 0.2
2017-Jun-21 08:20N 50°44' E 001°36'1 3.0
2017-Jun-21 08:00N 50°44' E 001°34'2 3.7
2017-Jun-21 07:30N 50°45' E 001°32'1 2.5
2017-Jun-21 06:56N 50°45' E 001°30'43 4.3
2017-Jun-20 20:58N 50°23' E 000°31'2 4.9
2017-Jun-20 20:30N 50°23' E 000°28'2 4.8
2017-Jun-20 20:00N 50°22' E 000°24'2 4.9
2017-Jun-20 19:30N 50°21' E 000°20'3 5.2
2017-Jun-20 19:00N 50°21' E 000°16'3 5.9
2017-Jun-20 18:30N 50°20' E 000°12'3 6.4
2017-Jun-20 18:00N 50°19' E 000°07'3 6.8
2017-Jun-20 17:30N 50°18' E 000°02'4 7.1
2017-Jun-20 17:00N 50°17' W 000°03'4 7.2
2017-Jun-20 16:30N 50°16' W 000°09'4 7.2
2017-Jun-20 16:00N 50°15' W 000°14'4 7.1
2017-Jun-20 15:30N 50°15' W 000°20'3 7.0
2017-Jun-20 15:00N 50°14' W 000°25'7 6.6
2017-Jun-20 14:00N 50°12' W 000°35'3 5.9
2017-Jun-20 13:30N 50°12' W 000°40'3 5.5
2017-Jun-20 13:00N 50°11' W 000°44'2 5.0
2017-Jun-20 12:31N 50°11' W 000°48'2 4.5
2017-Jun-20 12:00N 50°10' W 000°51'2 4.2
2017-Jun-20 11:30N 50°09' W 000°54'2 4.0
2017-Jun-20 11:00N 50°09' W 000°57'2 3.8
2017-Jun-20 10:30N 50°08' W 000°60'2 3.6
2017-Jun-20 10:01N 50°08' W 001°03'2 3.7
2017-Jun-20 09:20N 50°07' W 001°06'1 3.8
2017-Jun-20 08:58N 50°07' W 001°09'2 4.3
2017-Jun-20 08:30N 50°06' W 001°12'2 4.7
2017-Jun-20 08:00N 50°05' W 001°15'3 5.1
2017-Jun-20 07:28N 50°05' W 001°19'50 7.9
2017-Jun-20 01:06N 49°53' W 002°35'1 6.7
2017-Jun-20 01:00N 49°53' W 002°36'3 6.5
2017-Jun-20 00:30N 49°52' W 002°41'3 6.1
2017-Jun-20 00:00N 49°51' W 002°45'3 5.7
2017-Jun-19 23:31N 49°50' W 002°50'3 5.2
2017-Jun-19 23:00N 49°50' W 002°54'3 5.0
2017-Jun-19 22:30N 49°49' W 002°57'3 5.1
2017-Jun-19 22:01N 49°49' W 003°01'3 5.3
2017-Jun-19 21:30N 49°48' W 003°05'3 5.5
2017-Jun-19 21:00N 49°47' W 003°09'3 5.5
2017-Jun-19 20:31N 49°47' W 003°14'3 5.4
2017-Jun-19 20:01N 49°46' W 003°18'3 5.3
2017-Jun-19 19:31N 49°46' W 003°22'3 5.3
2017-Jun-19 19:00N 49°45' W 003°26'3 5.7
2017-Jun-19 18:31N 49°44' W 003°30'3 5.8
2017-Jun-19 18:01N 49°44' W 003°34'3 5.8
2017-Jun-19 17:30N 49°43' W 003°38'3 6.1
2017-Jun-19 17:00N 49°42' W 003°43'3 6.2
2017-Jun-19 16:29N 49°41' W 003°48'3 6.2
2017-Jun-19 16:01N 49°41' W 003°52'3 6.4
2017-Jun-19 15:30N 49°40' W 003°57'3 6.5
2017-Jun-19 15:00N 49°39' W 004°02'4 6.5
2017-Jun-19 14:23N 49°38' W 004°08'6 6.6
2017-Jun-19 13:30N 49°36' W 004°17'3 6.6
2017-Jun-19 13:00N 49°36' W 004°22'3 6.6
2017-Jun-19 12:30N 49°35' W 004°27'3 6.5
2017-Jun-19 12:01N 49°34' W 004°31'3 6.4
2017-Jun-19 11:31N 49°33' W 004°36'3 6.4
2017-Jun-19 11:00N 49°32' W 004°41'3 6.4
2017-Jun-19 10:30N 49°32' W 004°46'3 6.3
2017-Jun-19 10:00N 49°31' W 004°51'3 6.2
2017-Jun-19 09:27N 49°30' W 004°56'5 6.2
2017-Jun-19 08:40N 49°29' W 005°03'2 6.1
2017-Jun-19 08:23N 49°29' W 005°06'2 6.0
2017-Jun-19 07:59N 49°28' W 005°09'2 1.6
2017-Jun-19 06:58N 49°30' W 005°11'3 2.8
2017-Jun-19 05:58N 49°32' W 005°14'6 4.1
2017-Jun-19 04:25N 49°36' W 005°20'2 4.1
2017-Jun-19 03:58N 49°37' W 005°22'5 4.5
2017-Jun-19 02:47N 49°41' W 005°29'1 4.4
2017-Jun-19 02:30N 49°42' W 005°30'12 4.4
2017-Jun-18 23:52N 49°30' W 005°31'9 3.4
2017-Jun-18 21:08N 49°21' W 005°30'4 3.6
2017-Jun-18 20:05N 49°17' W 005°31'0 4.0
2017-Jun-18 20:00N 49°17' W 005°31'2 3.9
2017-Jun-18 19:29N 49°15' W 005°31'2 3.7
2017-Jun-18 18:59N 49°13' W 005°32'5 4.1
2017-Jun-18 17:43N 49°08' W 005°31'6 3.3
2017-Jun-18 15:49N 49°01' W 005°30'4 3.1
2017-Jun-18 14:35N 48°58' W 005°29'1 3.6
2017-Jun-18 14:26N 48°57' W 005°29'8 3.0
2017-Jun-18 11:41N 48°49' W 005°29'1 2.6
2017-Jun-18 11:27N 48°48' W 005°30'1 2.7
2017-Jun-18 11:00N 48°47' W 005°30'1 2.6
2017-Jun-18 10:30N 48°46' W 005°30'1 2.9
2017-Jun-18 10:00N 48°44' W 005°31'2 3.1
2017-Jun-18 09:30N 48°43' W 005°32'2 3.4
2017-Jun-18 08:59N 48°41' W 005°32'8 4.3
2017-Jun-18 07:07N 48°33' W 005°34'1 5.3
2017-Jun-18 07:00N 48°33' W 005°35'3 5.5
2017-Jun-18 06:30N 48°30' W 005°34'3 5.2
2017-Jun-18 05:59N 48°27' W 005°33'13 5.7
2017-Jun-18 03:43N 48°21' W 005°16'1 5.5
2017-Jun-18 03:29N 48°20' W 005°15'3 5.5
2017-Jun-18 03:00N 48°19' W 005°11'3 5.5
2017-Jun-18 02:30N 48°18' W 005°07'2 4.8
2017-Jun-18 02:01N 48°17' W 005°04'2 4.3
2017-Jun-18 01:31N 48°17' W 005°01'2 3.7
2017-Jun-18 01:00N 48°16' W 004°58'2 4.2
2017-Jun-18 00:30N 48°16' W 004°55'2 3.7
2017-Jun-18 00:00N 48°16' W 004°52'1 2.0
2017-Jun-17 23:31N 48°17' W 004°51'2 4.0
2017-Jun-17 23:00N 48°17' W 004°48'2 4.2
2017-Jun-17 22:30N 48°17' W 004°45'2 3.7
2017-Jun-17 22:00N 48°18' W 004°42'2 4.2
2017-Jun-17 21:30N 48°19' W 004°39'2 4.6
2017-Jun-17 21:00N 48°18' W 004°36'1 1.4
2017-Jun-17 20:31N 48°17' W 004°36'0 0.0
2017-Jun-17 20:00N 48°17' W 004°36'0 0.0
2017-Jun-17 19:30N 48°17' W 004°36'0 0.1
2017-Jun-17 19:00N 48°17' W 004°36'0 0.0
2017-Jun-17 18:30N 48°17' W 004°36'0 0.0
2017-Jun-17 18:00N 48°17' W 004°36'0 0.0
2017-Jun-17 17:30N 48°17' W 004°36'0 0.0
2017-Jun-17 17:00N 48°17' W 004°35'0 0.0
2017-Jun-17 16:30N 48°17' W 004°35'0 0.0
2017-Jun-17 16:00N 48°17' W 004°35'0 0.0
2017-Jun-17 15:30N 48°17' W 004°35'0 0.0
2017-Jun-17 15:00N 48°17' W 004°35'0 0.1
2017-Jun-17 14:30N 48°17' W 004°35'0 0.0
2017-Jun-17 13:30N 48°17' W 004°35'0 0.0
2017-Jun-17 13:00N 48°17' W 004°35'0 0.0
2017-Jun-17 12:30N 48°17' W 004°35'0 0.1
2017-Jun-17 12:00N 48°17' W 004°35'0 0.1
2017-Jun-17 11:30N 48°17' W 004°36'0 0.0
2017-Jun-17 11:00N 48°17' W 004°36'0 0.0
2017-Jun-17 10:30N 48°17' W 004°36'0 0.1
2017-Jun-17 10:00N 48°17' W 004°36'0 0.0
2017-Jun-17 09:30N 48°17' W 004°36'0 0.0
2017-Jun-17 09:00N 48°17' W 004°36'0 0.0
2017-Jun-17 08:30N 48°17' W 004°36'0 0.0
2017-Jun-17 08:00N 48°17' W 004°36'0 0.0
2017-Jun-17 07:30N 48°17' W 004°36'0 0.0
2017-Jun-17 07:00N 48°17' W 004°36'0 0.0
2017-Jun-17 06:30N 48°17' W 004°36'0 0.0
2017-Jun-17 06:00N 48°17' W 004°36'0 0.0
2017-Jun-17 05:30N 48°17' W 004°36'0 0.0
2017-Jun-17 05:00N 48°17' W 004°36'0 0.0
2017-Jun-17 04:31N 48°17' W 004°36'0 0.0
2017-Jun-17 04:00N 48°17' W 004°36'0 0.0
2017-Jun-17 03:30N 48°17' W 004°36'0 0.0
2017-Jun-17 03:00N 48°17' W 004°36'0 0.0
2017-Jun-17 02:30N 48°17' W 004°36'0 0.0
2017-Jun-17 02:00N 48°17' W 004°36'0 0.0
2017-Jun-17 01:30N 48°17' W 004°36'0 0.0
2017-Jun-17 01:00N 48°17' W 004°36'0 0.0
2017-Jun-17 00:30N 48°17' W 004°36'0 0.0
2017-Jun-17 00:00N 48°17' W 004°36'0 0.0
2017-Jun-16 23:30N 48°17' W 004°36'0 0.0
2017-Jun-16 23:00N 48°17' W 004°36'0 0.0
2017-Jun-16 22:30N 48°17' W 004°36'0 0.0
2017-Jun-16 22:00N 48°17' W 004°36'0 0.0
2017-Jun-16 21:30N 48°17' W 004°36'0 0.0
2017-Jun-16 21:00N 48°17' W 004°36'0 0.0
2017-Jun-16 20:30N 48°17' W 004°36'0 0.0
2017-Jun-16 20:00N 48°17' W 004°36'0 0.0
2017-Jun-16 19:30N 48°17' W 004°36'0 0.0
2017-Jun-16 19:00N 48°17' W 004°36'0 0.0
2017-Jun-16 18:30N 48°17' W 004°36'0 0.0
2017-Jun-16 18:01N 48°17' W 004°36'0 0.0
2017-Jun-16 17:30N 48°17' W 004°36'1 1.2
2017-Jun-16 17:01N 48°18' W 004°36'2 3.5
2017-Jun-16 16:31N 48°18' W 004°39'3 5.5
2017-Jun-16 16:01N 48°18' W 004°43'4 7.3
2017-Jun-16 15:31N 48°16' W 004°48'  
Track history (hours):
 
Tides and Currents Weather Stations Pressure Air Temp Water Temp Dewpoint Dewpoint Depression Visibility Wind Speed Wind Dir Waves Ship Positions

STS Fryderyk Chopin (Poland)

Ship's website: http://www.fryderykchopin.pl/

Last reported at 2017-Jun-26 15:15 UTC. Time now 2017-Jun-27 10:25 UTC.
Position N 55°42' E 006°35'.

Length 44 m; draft 4.2 m.

Type: Sailing vessel. MMSI: 261000290.

Date/timePositionNaut miles runAvg speedWind from/ knotsBaromVisibWave heightAir tempDewpointWater temp
2017-Jun-26 15:15N 55°42' E 006°35'2 7.8
2017-Jun-26 14:59N 55°41' E 006°33'3 7.1
2017-Jun-26 14:30N 55°38' E 006°30'8 7.7
2017-Jun-26 13:29N 55°30' E 006°26'121 8.8
2017-Jun-25 23:46N 53°42' E 004°50'2 7.7
2017-Jun-25 23:30N 53°40' E 004°50'4 7.3
2017-Jun-25 23:00N 53°37' E 004°48'3 6.0
2017-Jun-25 22:30N 53°34' E 004°47'3 5.1
2017-Jun-25 22:00N 53°31' E 004°46'2 4.2
2017-Jun-25 21:30N 53°29' E 004°45'2 3.7
2017-Jun-25 21:01N 53°28' E 004°44'2 3.8
2017-Jun-25 20:30N 53°26' E 004°43'2 4.4
2017-Jun-25 20:00N 53°24' E 004°41'2 4.5
2017-Jun-25 19:30N 53°22' E 004°40'2 4.8
2017-Jun-25 19:00N 53°20' E 004°38'3 6.6
2017-Jun-25 18:31N 53°16' E 004°37'3 6.3
2017-Jun-25 18:00N 53°13' E 004°35'3 6.1
2017-Jun-25 17:30N 53°11' E 004°33'3 6.5
2017-Jun-25 17:00N 53°08' E 004°30'4 6.7
2017-Jun-25 16:27N 53°04' E 004°28'3 6.3
2017-Jun-25 16:00N 53°02' E 004°27'3 5.5
2017-Jun-25 15:30N 52°59' E 004°27'3 5.5
2017-Jun-25 15:00N 52°56' E 004°29'4 4.2
2017-Jun-25 14:00N 52°52' E 004°30'2 4.2
2017-Jun-25 13:30N 52°50' E 004°30'2 5.0
2017-Jun-25 13:00N 52°47' E 004°30'3 5.1
2017-Jun-25 12:31N 52°45' E 004°29'3 5.2
2017-Jun-25 12:00N 52°42' E 004°29'3 5.6
2017-Jun-25 11:30N 52°39' E 004°29'3 5.8
2017-Jun-25 11:00N 52°37' E 004°29'2 4.8
2017-Jun-25 10:30N 52°34' E 004°29'3 5.0
2017-Jun-25 10:00N 52°32' E 004°27'2 4.9
2017-Jun-25 09:30N 52°29' E 004°28'2 4.5
2017-Jun-25 09:01N 52°28' E 004°31'3 5.3
2017-Jun-25 08:31N 52°28' E 004°35'1 1.5
2017-Jun-25 08:00N 52°28' E 004°37'2 4.4
2017-Jun-25 07:30N 52°28' E 004°40'0 0.2
2017-Jun-25 07:01N 52°28' E 004°40'0 0.0
2017-Jun-25 06:30N 52°28' E 004°40'0 0.0
2017-Jun-25 06:01N 52°28' E 004°40'0 0.0
2017-Jun-25 05:30N 52°28' E 004°40'0 0.0
2017-Jun-25 05:01N 52°28' E 004°40'0 0.0
2017-Jun-25 04:30N 52°28' E 004°40'0 0.0
2017-Jun-25 04:00N 52°28' E 004°40'0 0.0
2017-Jun-25 03:30N 52°28' E 004°40'0 0.0
2017-Jun-25 03:01N 52°28' E 004°40'0 0.0
2017-Jun-25 02:31N 52°28' E 004°40'0 0.0
2017-Jun-25 02:01N 52°28' E 004°40'0 0.0
2017-Jun-25 01:31N 52°28' E 004°40'0 0.0
2017-Jun-25 01:01N 52°28' E 004°40'0 0.0
2017-Jun-25 00:30N 52°28' E 004°40'0 0.0
2017-Jun-25 00:00N 52°28' E 004°40'0 0.0
2017-Jun-24 23:31N 52°28' E 004°40'0 0.0
2017-Jun-24 23:00N 52°28' E 004°40'0 0.0
2017-Jun-24 22:30N 52°28' E 004°40'0 0.0
2017-Jun-24 22:01N 52°28' E 004°40'0 0.0
2017-Jun-24 21:31N 52°28' E 004°40'0 0.0
2017-Jun-24 21:00N 52°28' E 004°40'0 0.0
2017-Jun-24 20:30N 52°28' E 004°40'0 0.0
2017-Jun-24 20:00N 52°28' E 004°40'0 0.0
2017-Jun-24 19:30N 52°28' E 004°40'0 0.0
2017-Jun-24 19:00N 52°28' E 004°40'0 0.0
2017-Jun-24 18:31N 52°28' E 004°40'0 0.0
2017-Jun-24 18:00N 52°28' E 004°40'0 0.0
2017-Jun-24 17:30N 52°28' E 004°40'0 0.0
2017-Jun-24 17:00N 52°28' E 004°40'0 0.0
2017-Jun-24 16:31N 52°28' E 004°40'0 0.0
2017-Jun-24 16:00N 52°28' E 004°40'0 0.0
2017-Jun-24 15:30N 52°28' E 004°40'0 0.0
2017-Jun-24 15:00N 52°28' E 004°40'0 0.0
2017-Jun-24 14:01N 52°28' E 004°40'0 0.0
2017-Jun-24 13:31N 52°28' E 004°40'0 0.0
2017-Jun-24 13:00N 52°28' E 004°40'0 0.0
2017-Jun-24 12:31N 52°28' E 004°40'0 0.0
2017-Jun-24 12:00N 52°28' E 004°40'0 0.0
2017-Jun-24 11:31N 52°28' E 004°40'0 0.0
2017-Jun-24 11:01N 52°28' E 004°40'0 0.0
2017-Jun-24 10:31N 52°28' E 004°40'0 0.0
2017-Jun-24 10:00N 52°28' E 004°40'0 0.0
2017-Jun-24 09:31N 52°28' E 004°40'0 0.0
2017-Jun-24 09:00N 52°28' E 004°40'0 0.0
2017-Jun-24 08:30N 52°28' E 004°40'0 0.0
2017-Jun-24 08:01N 52°28' E 004°40'0 0.0
2017-Jun-24 07:30N 52°28' E 004°40'0 0.0
2017-Jun-24 07:00N 52°28' E 004°40'0 0.0
2017-Jun-24 06:31N 52°28' E 004°40'0 0.0
2017-Jun-24 06:00N 52°28' E 004°40'0 0.0
2017-Jun-24 05:31N 52°28' E 004°40'0 0.0
2017-Jun-24 05:01N 52°28' E 004°40'0 0.0
2017-Jun-24 04:31N 52°28' E 004°40'0 0.0
2017-Jun-24 04:01N 52°28' E 004°40'0 0.0
2017-Jun-24 03:30N 52°28' E 004°40'0 0.0
2017-Jun-24 03:00N 52°28' E 004°40'0 0.0
2017-Jun-24 02:31N 52°28' E 004°40'0 0.0
2017-Jun-24 02:00N 52°28' E 004°40'0 0.0
2017-Jun-24 01:30N 52°28' E 004°40'0 0.0
2017-Jun-24 01:01N 52°28' E 004°40'0 0.0
2017-Jun-24 00:30N 52°28' E 004°40'0 0.0
2017-Jun-24 00:00N 52°28' E 004°40'0 0.0
2017-Jun-23 23:31N 52°28' E 004°40'0 0.0
2017-Jun-23 23:00N 52°28' E 004°40'0 0.0
2017-Jun-23 22:31N 52°28' E 004°40'0 0.0
2017-Jun-23 22:00N 52°28' E 004°40'0 0.0
2017-Jun-23 21:31N 52°28' E 004°40'0 0.0
2017-Jun-23 21:00N 52°28' E 004°40'0 0.0
2017-Jun-23 20:31N 52°28' E 004°40'0 0.0
2017-Jun-23 20:00N 52°28' E 004°40'0 0.0
2017-Jun-23 19:31N 52°28' E 004°40'0 0.0
2017-Jun-23 19:01N 52°28' E 004°40'0 0.0
2017-Jun-23 18:30N 52°28' E 004°40'0 0.0
2017-Jun-23 18:00N 52°28' E 004°40'0 0.0
2017-Jun-23 17:30N 52°28' E 004°40'0 0.5
2017-Jun-23 17:00N 52°28' E 004°40'2 4.1
2017-Jun-23 16:30N 52°28' E 004°37'1 1.9
2017-Jun-23 16:00N 52°28' E 004°35'1 2.2
2017-Jun-23 15:30N 52°28' E 004°33'3 5.1
2017-Jun-23 15:00N 52°28' E 004°29'6 6.4
2017-Jun-23 14:00N 52°28' E 004°19'4 8.1
2017-Jun-23 13:30N 52°27' E 004°12'5 9.4
2017-Jun-23 13:00N 52°26' E 004°05'5 8.8
2017-Jun-23 12:26N 52°24' E 003°57'4 8.4
2017-Jun-23 11:59N 52°23' E 003°51'4 7.8
2017-Jun-23 11:30N 52°22' E 003°45'4 7.1
2017-Jun-23 10:58N 52°20' E 003°39'3 6.4
2017-Jun-23 10:30N 52°19' E 003°35'3 5.8
2017-Jun-23 10:00N 52°17' E 003°31'2 4.6
2017-Jun-23 09:28N 52°16' E 003°28'2 3.4
2017-Jun-23 09:00N 52°15' E 003°26'1 2.8
2017-Jun-23 08:30N 52°15' E 003°24'1 2.9
2017-Jun-23 08:00N 52°14' E 003°21'1 2.4
2017-Jun-23 07:26N 52°13' E 003°20'1 1.8
2017-Jun-23 06:52N 52°13' E 003°18'1 1.8
2017-Jun-23 06:30N 52°12' E 003°17'1 1.5
2017-Jun-23 05:59N 52°12' E 003°16'40 4.4
2017-Jun-22 20:57N 51°43' E 002°31'1 2.0
2017-Jun-22 20:30N 51°43' E 002°30'1 1.7
2017-Jun-22 19:58N 51°42' E 002°29'1 1.2
2017-Jun-22 19:25N 51°41' E 002°29'0 0.7
2017-Jun-22 18:55N 51°41' E 002°28'1 1.7
2017-Jun-22 18:25N 51°40' E 002°27'1 2.1
2017-Jun-22 18:00N 51°40' E 002°26'2 3.1
2017-Jun-22 17:28N 51°38' E 002°25'2 3.7
2017-Jun-22 16:59N 51°37' E 002°23'2 3.4
2017-Jun-22 16:30N 51°36' E 002°21'3 5.2
2017-Jun-22 16:00N 51°34' E 002°19'3 6.5
2017-Jun-22 15:30N 51°31' E 002°15'4 7.0
2017-Jun-22 15:00N 51°29' E 002°12'8 8.1
2017-Jun-22 14:00N 51°22' E 002°04'5 9.2
2017-Jun-22 13:30N 51°18' E 001°60'5 9.9
2017-Jun-22 13:00N 51°15' E 001°54'5 9.8
2017-Jun-22 12:30N 51°13' E 001°47'5 9.7
2017-Jun-22 12:01N 51°09' E 001°43'5 9.4
2017-Jun-22 11:30N 51°04' E 001°39'5 9.3
2017-Jun-22 11:00N 51°00' E 001°36'7 9.4
2017-Jun-22 10:13N 50°54' E 001°30'310.6
2017-Jun-22 09:54N 50°50' E 001°29'5 7.8
2017-Jun-22 09:16N 50°46' E 001°30'1 3.7
2017-Jun-22 08:58N 50°45' E 001°31'1 3.1
2017-Jun-22 08:30N 50°45' E 001°34'2 2.1
2017-Jun-22 07:31N 50°43' E 001°36'0 0.0
2017-Jun-22 06:10N 50°43' E 001°36'0 0.0
2017-Jun-22 05:49N 50°43' E 001°36'0 0.0
2017-Jun-22 05:19N 50°43' E 001°36'0 0.0
2017-Jun-22 04:37N 50°43' E 001°36'0 0.0
2017-Jun-22 04:07N 50°43' E 001°36'0 0.0
2017-Jun-22 02:01N 50°43' E 001°36'0 0.0
2017-Jun-22 01:43N 50°43' E 001°36'0 0.0
2017-Jun-22 01:16N 50°43' E 001°36'0 0.0
2017-Jun-22 00:55N 50°43' E 001°36'0 0.0
2017-Jun-22 00:25N 50°43' E 001°36'0 0.0
2017-Jun-21 23:49N 50°43' E 001°36'0 0.0
2017-Jun-21 23:28N 50°43' E 001°36'0 0.0
2017-Jun-21 22:58N 50°43' E 001°36'0 0.0
2017-Jun-21 22:25N 50°43' E 001°36'0 0.0
2017-Jun-21 21:55N 50°43' E 001°36'0 0.0
2017-Jun-21 21:25N 50°43' E 001°36'0 0.0
2017-Jun-21 16:40N 50°43' E 001°36'0 0.0
2017-Jun-21 09:30N 50°43' E 001°36'0 0.2
2017-Jun-21 08:20N 50°44' E 001°36'1 3.0
2017-Jun-21 08:00N 50°44' E 001°34'2 3.7
2017-Jun-21 07:30N 50°45' E 001°32'1 2.5
2017-Jun-21 06:56N 50°45' E 001°30'43 4.3
2017-Jun-20 20:58N 50°23' E 000°31'2 4.9
2017-Jun-20 20:30N 50°23' E 000°28'2 4.8
2017-Jun-20 20:00N 50°22' E 000°24'2 4.9
2017-Jun-20 19:30N 50°21' E 000°20'3 5.2
2017-Jun-20 19:00N 50°21' E 000°16'3 5.9
2017-Jun-20 18:30N 50°20' E 000°12'3 6.4
2017-Jun-20 18:00N 50°19' E 000°07'3 6.8
2017-Jun-20 17:30N 50°18' E 000°02'4 7.1
2017-Jun-20 17:00N 50°17' W 000°03'4 7.2
2017-Jun-20 16:30N 50°16' W 000°09'4 7.2
2017-Jun-20 16:00N 50°15' W 000°14'4 7.1
2017-Jun-20 15:30N 50°15' W 000°20'3 7.0
2017-Jun-20 15:00N 50°14' W 000°25'7 6.6
2017-Jun-20 14:00N 50°12' W 000°35'3 5.9
2017-Jun-20 13:30N 50°12' W 000°40'3 5.5
2017-Jun-20 13:00N 50°11' W 000°44'2 5.0
2017-Jun-20 12:31N 50°11' W 000°48'2 4.5
2017-Jun-20 12:00N 50°10' W 000°51'2 4.2
2017-Jun-20 11:30N 50°09' W 000°54'2 4.0
2017-Jun-20 11:00N 50°09' W 000°57'2 3.8
2017-Jun-20 10:30N 50°08' W 000°60'2 3.6
2017-Jun-20 10:01N 50°08' W 001°03'2 3.7
2017-Jun-20 09:20N 50°07' W 001°06'1 3.8
2017-Jun-20 08:58N 50°07' W 001°09'2 4.3
2017-Jun-20 08:30N 50°06' W 001°12'2 4.7
2017-Jun-20 08:00N 50°05' W 001°15'3 5.1
2017-Jun-20 07:28N 50°05' W 001°19'50 7.9
2017-Jun-20 01:06N 49°53' W 002°35'1 6.7
2017-Jun-20 01:00N 49°53' W 002°36'3 6.5
2017-Jun-20 00:30N 49°52' W 002°41'3 6.1
2017-Jun-20 00:00N 49°51' W 002°45'3 5.7
2017-Jun-19 23:31N 49°50' W 002°50'3 5.2
2017-Jun-19 23:00N 49°50' W 002°54'3 5.0
2017-Jun-19 22:30N 49°49' W 002°57'3 5.1
2017-Jun-19 22:01N 49°49' W 003°01'3 5.3
2017-Jun-19 21:30N 49°48' W 003°05'3 5.5
2017-Jun-19 21:00N 49°47' W 003°09'3 5.5
2017-Jun-19 20:31N 49°47' W 003°14'3 5.4
2017-Jun-19 20:01N 49°46' W 003°18'3 5.3
2017-Jun-19 19:31N 49°46' W 003°22'3 5.3
2017-Jun-19 19:00N 49°45' W 003°26'3 5.7
2017-Jun-19 18:31N 49°44' W 003°30'3 5.8
2017-Jun-19 18:01N 49°44' W 003°34'3 5.8
2017-Jun-19 17:30N 49°43' W 003°38'3 6.1
2017-Jun-19 17:00N 49°42' W 003°43'3 6.2
2017-Jun-19 16:29N 49°41' W 003°48'3 6.2
2017-Jun-19 16:01N 49°41' W 003°52'3 6.4
2017-Jun-19 15:30N 49°40' W 003°57'3 6.5
2017-Jun-19 15:00N 49°39' W 004°02'4 6.5
2017-Jun-19 14:23N 49°38' W 004°08'6 6.6
2017-Jun-19 13:30N 49°36' W 004°17'3 6.6
2017-Jun-19 13:00N 49°36' W 004°22'3 6.6
2017-Jun-19 12:30N 49°35' W 004°27'3 6.5
2017-Jun-19 12:01N 49°34' W 004°31'3 6.4
2017-Jun-19 11:31N 49°33' W 004°36'3 6.4
2017-Jun-19 11:00N 49°32' W 004°41'3 6.4
2017-Jun-19 10:30N 49°32' W 004°46'3 6.3
2017-Jun-19 10:00N 49°31' W 004°51'3 6.2
2017-Jun-19 09:27N 49°30' W 004°56'5 6.2
2017-Jun-19 08:40N 49°29' W 005°03'2 6.1
2017-Jun-19 08:23N 49°29' W 005°06'2 6.0
2017-Jun-19 07:59N 49°28' W 005°09'2 1.6
2017-Jun-19 06:58N 49°30' W 005°11'3 2.8
2017-Jun-19 05:58N 49°32' W 005°14'6 4.1
2017-Jun-19 04:25N 49°36' W 005°20'2 4.1
2017-Jun-19 03:58N 49°37' W 005°22'5 4.5
2017-Jun-19 02:47N 49°41' W 005°29'1 4.4
2017-Jun-19 02:30N 49°42' W 005°30'12 4.4
2017-Jun-18 23:52N 49°30' W 005°31'9 3.4
2017-Jun-18 21:08N 49°21' W 005°30'4 3.6
2017-Jun-18 20:05N 49°17' W 005°31'0 4.0
2017-Jun-18 20:00N 49°17' W 005°31'2 3.9
2017-Jun-18 19:29N 49°15' W 005°31'2 3.7
2017-Jun-18 18:59N 49°13' W 005°32'5 4.1
2017-Jun-18 17:43N 49°08' W 005°31'6 3.3
2017-Jun-18 15:49N 49°01' W 005°30'4 3.1
2017-Jun-18 14:35N 48°58' W 005°29'1 3.6
2017-Jun-18 14:26N 48°57' W 005°29'8 3.0
2017-Jun-18 11:41N 48°49' W 005°29'1 2.6
2017-Jun-18 11:27N 48°48' W 005°30'1 2.7
2017-Jun-18 11:00N 48°47' W 005°30'1 2.6
2017-Jun-18 10:30N 48°46' W 005°30'1 2.9
2017-Jun-18 10:00N 48°44' W 005°31'2 3.1
2017-Jun-18 09:30N 48°43' W 005°32'2 3.4
2017-Jun-18 08:59N 48°41' W 005°32'8 4.3
2017-Jun-18 07:07N 48°33' W 005°34'1 5.3
2017-Jun-18 07:00N 48°33' W 005°35'3 5.5
2017-Jun-18 06:30N 48°30' W 005°34'3 5.2
2017-Jun-18 05:59N 48°27' W 005°33'13 5.7
2017-Jun-18 03:43N 48°21' W 005°16'1 5.5
2017-Jun-18 03:29N 48°20' W 005°15'3 5.5
2017-Jun-18 03:00N 48°19' W 005°11'3 5.5
2017-Jun-18 02:30N 48°18' W 005°07'2 4.8
2017-Jun-18 02:01N 48°17' W 005°04'2 4.3
2017-Jun-18 01:31N 48°17' W 005°01'2 3.7
2017-Jun-18 01:00N 48°16' W 004°58'2 4.2
2017-Jun-18 00:30N 48°16' W 004°55'2 3.7
2017-Jun-18 00:00N 48°16' W 004°52'1 2.0
2017-Jun-17 23:31N 48°17' W 004°51'2 4.0
2017-Jun-17 23:00N 48°17' W 004°48'2 4.2
2017-Jun-17 22:30N 48°17' W 004°45'2 3.7
2017-Jun-17 22:00N 48°18' W 004°42'2 4.2
2017-Jun-17 21:30N 48°19' W 004°39'2 4.6
2017-Jun-17 21:00N 48°18' W 004°36'1 1.4
2017-Jun-17 20:31N 48°17' W 004°36'0 0.0
2017-Jun-17 20:00N 48°17' W 004°36'0 0.0
2017-Jun-17 19:30N 48°17' W 004°36'0 0.1
2017-Jun-17 19:00N 48°17' W 004°36'0 0.0
2017-Jun-17 18:30N 48°17' W 004°36'0 0.0
2017-Jun-17 18:00N 48°17' W 004°36'0 0.0
2017-Jun-17 17:30N 48°17' W 004°36'0 0.0
2017-Jun-17 17:00N 48°17' W 004°35'0 0.0
2017-Jun-17 16:30N 48°17' W 004°35'0 0.0
2017-Jun-17 16:00N 48°17' W 004°35'0 0.0
2017-Jun-17 15:30N 48°17' W 004°35'0 0.0
2017-Jun-17 15:00N 48°17' W 004°35'0 0.1
2017-Jun-17 14:30N 48°17' W 004°35'0 0.0
2017-Jun-17 13:30N 48°17' W 004°35'0 0.0
2017-Jun-17 13:00N 48°17' W 004°35'0 0.0
2017-Jun-17 12:30N 48°17' W 004°35'0 0.1
2017-Jun-17 12:00N 48°17' W 004°35'0 0.1
2017-Jun-17 11:30N 48°17' W 004°36'0 0.0
2017-Jun-17 11:00N 48°17' W 004°36'0 0.0
2017-Jun-17 10:30N 48°17' W 004°36'0 0.1
2017-Jun-17 10:00N 48°17' W 004°36'0 0.0
2017-Jun-17 09:30N 48°17' W 004°36'0 0.0
2017-Jun-17 09:00N 48°17' W 004°36'0 0.0
2017-Jun-17 08:30N 48°17' W 004°36'0 0.0
2017-Jun-17 08:00N 48°17' W 004°36'0 0.0
2017-Jun-17 07:30N 48°17' W 004°36'0 0.0
2017-Jun-17 07:00N 48°17' W 004°36'0 0.0
2017-Jun-17 06:30N 48°17' W 004°36'0 0.0
2017-Jun-17 06:00N 48°17' W 004°36'0 0.0
2017-Jun-17 05:30N 48°17' W 004°36'0 0.0
2017-Jun-17 05:00N 48°17' W 004°36'0 0.0
2017-Jun-17 04:31N 48°17' W 004°36'0 0.0
2017-Jun-17 04:00N 48°17' W 004°36'0 0.0
2017-Jun-17 03:30N 48°17' W 004°36'0 0.0
2017-Jun-17 03:00N 48°17' W 004°36'0 0.0
2017-Jun-17 02:30N 48°17' W 004°36'0 0.0
2017-Jun-17 02:00N 48°17' W 004°36'0 0.0
2017-Jun-17 01:30N 48°17' W 004°36'0 0.0
2017-Jun-17 01:00N 48°17' W 004°36'0 0.0
2017-Jun-17 00:30N 48°17' W 004°36'0 0.0
2017-Jun-17 00:00N 48°17' W 004°36'0 0.0
2017-Jun-16 23:30N 48°17' W 004°36'0 0.0
2017-Jun-16 23:00N 48°17' W 004°36'0 0.0
2017-Jun-16 22:30N 48°17' W 004°36'0 0.0
2017-Jun-16 22:00N 48°17' W 004°36'0 0.0
2017-Jun-16 21:30N 48°17' W 004°36'0 0.0
2017-Jun-16 21:00N 48°17' W 004°36'0 0.0
2017-Jun-16 20:30N 48°17' W 004°36'0 0.0
2017-Jun-16 20:00N 48°17' W 004°36'0 0.0
2017-Jun-16 19:30N 48°17' W 004°36'0 0.0
2017-Jun-16 19:00N 48°17' W 004°36'0 0.0
2017-Jun-16 18:30N 48°17' W 004°36'0 0.0
2017-Jun-16 18:01N 48°17' W 004°36'0 0.0
2017-Jun-16 17:30N 48°17' W 004°36'1 1.2
2017-Jun-16 17:01N 48°18' W 004°36'2 3.5
2017-Jun-16 16:31N 48°18' W 004°39'3 5.5
2017-Jun-16 16:01N 48°18' W 004°43'4 7.3
2017-Jun-16 15:31N 48°16' W 004°48'  

Dump ship's entire track history